Time;durP1;ratioP1;P1;durP2;ratioP2;P2;SDS_P1;SDS_P2;PMS_P1;PMS_P2;Temp;Humidity;BMP_temperature;BMP_pressure;BME280_temperature;BME280_humidity;BME280_pressure;Samples;Min_cycle;Max_cycle;Signal;HPM_P1;HPM_P2
2023/10/05 00:02:23;;;;;;;25.27;3.63;;;15.40;99.90;;;;;;6246805;23;20063;-48
2023/10/05 00:04:42;;;;;;;16.48;4.18;;;15.40;99.90;;;;;;6243497;23;20019;-52
2023/10/05 00:07:23;;;;;;;13.73;2.78;;;15.30;99.90;;;;;;6246305;23;20012;-49
2023/10/05 00:09:49;;;;;;;18.15;3.30;;;15.40;99.90;;;;;;6248201;23;20012;-51
2023/10/05 00:12:20;;;;;;;30.67;4.15;;;15.40;99.90;;;;;;6248558;23;20015;-51
2023/10/05 00:14:48;;;;;;;18.23;3.67;;;15.40;99.90;;;;;;6250308;23;20004;-49
2023/10/05 00:17:18;;;;;;;16.73;3.10;;;15.40;99.90;;;;;;6250155;23;20089;-49
2023/10/05 00:19:44;;;;;;;23.48;3.63;;;15.40;99.90;;;;;;6250169;22;20012;-53
2023/10/05 00:22:11;;;;;;;22.95;3.83;;;15.40;99.90;;;;;;6249731;23;20098;-48
2023/10/05 00:24:37;;;;;;;24.52;3.65;;;15.40;99.90;;;;;;6249903;23;20008;-49
2023/10/05 00:27:09;;;;;;;23.80;3.35;;;15.40;99.90;;;;;;6249868;23;20418;-50
2023/10/05 00:29:41;;;;;;;16.60;2.78;;;15.40;99.90;;;;;;6248595;23;20458;-49
2023/10/05 00:32:33;;;;;;;25.05;4.20;;;15.40;99.90;;;;;;6249653;23;20012;-49
2023/10/05 00:37:44;;;;;;;20.05;3.20;;;15.40;99.90;;;;;;6249893;23;20020;-52
2023/10/05 00:40:12;;;;;;;15.95;3.15;;;15.40;99.90;;;;;;6249748;23;20027;-49
2023/10/05 00:42:38;;;;;;;14.25;3.50;;;15.40;99.90;;;;;;6249311;23;20015;-50
2023/10/05 00:45:09;;;;;;;21.88;3.53;;;15.40;99.90;;;;;;6249870;23;20004;-52
2023/10/05 00:47:34;;;;;;;27.10;4.45;;;15.40;99.90;;;;;;6249821;22;20007;-52
2023/10/05 00:50:01;;;;;;;21.48;3.83;;;15.40;99.90;;;;;;6249377;23;20008;-50
2023/10/05 00:52:29;;;;;;;26.55;3.55;;;15.40;99.90;;;;;;6248780;23;20012;-50
2023/10/05 00:55:10;;;;;;;19.90;4.00;;;15.40;99.90;;;;;;6248354;23;20407;-52
2023/10/05 00:57:36;;;;;;;14.77;3.40;;;15.40;99.90;;;;;;6248446;23;20019;-51
2023/10/05 01:02:45;;;;;;;17.45;3.92;;;15.40;99.90;;;;;;6249402;23;20300;-52
2023/10/05 01:05:25;;;;;;;16.75;3.30;;;15.40;99.90;;;;;;6249732;23;20334;-52
2023/10/05 01:07:56;;;;;;;;;;;15.30;99.90;;;;;;6248694;23;20012;-48
2023/10/05 01:10:28;;;;;;;15.00;2.55;;;15.40;99.90;;;;;;6248189;23;19925;-50
2023/10/05 01:12:54;;;;;;;16.48;3.30;;;15.40;99.90;;;;;;6249724;23;20285;-49
2023/10/05 01:15:21;;;;;;;17.88;3.58;;;15.40;99.90;;;;;;6249049;23;20015;-50
2023/10/05 01:17:50;;;;;;;19.52;3.55;;;15.40;99.90;;;;;;6249538;23;20012;-51
2023/10/05 01:22:44;;;;;;;22.65;3.35;;;15.40;99.90;;;;;;6249143;23;20008;-49
2023/10/05 01:25:14;;;;;;;18.50;3.40;;;15.40;99.90;;;;;;6248250;23;20043;-50
2023/10/05 01:27:42;;;;;;;24.80;3.35;;;15.40;99.90;;;;;;6248056;23;20022;-51
2023/10/05 01:30:09;;;;;;;15.38;3.50;;;15.40;99.90;;;;;;6249058;23;20008;-51
2023/10/05 01:32:35;;;;;;;20.80;4.00;;;15.40;99.90;;;;;;6249210;23;20009;-51
2023/10/05 01:35:06;;;;;;;20.23;3.20;;;15.40;99.90;;;;;;6249272;23;20304;-50
2023/10/05 01:37:33;;;;;;;21.77;3.58;;;15.40;99.90;;;;;;6249376;23;20022;-48
2023/10/05 01:39:59;;;;;;;16.65;2.88;;;15.40;99.90;;;;;;6248990;23;20073;-49
2023/10/05 01:42:25;;;;;;;18.70;3.78;;;15.40;99.90;;;;;;6249501;23;20012;-48
2023/10/05 01:44:51;;;;;;;16.10;3.30;;;15.40;99.90;;;;;;6249100;23;20004;-51
2023/10/05 01:47:17;;;;;;;15.18;2.65;;;15.40;99.90;;;;;;6248759;23;20062;-49
2023/10/05 01:49:44;;;;;;;19.17;4.13;;;15.40;99.90;;;;;;6247862;23;20013;-48
2023/10/05 01:52:10;;;;;;;9.65;2.63;;;15.50;99.90;;;;;;6248864;23;20051;-49
2023/10/05 01:54:36;;;;;;;22.20;3.55;;;15.40;99.90;;;;;;6249400;23;20391;-52
2023/10/05 01:57:06;;;;;;;16.75;2.83;;;15.40;99.90;;;;;;6249024;23;20008;-50
2023/10/05 01:59:34;;;;;;;13.95;3.33;;;15.40;99.90;;;;;;6249106;23;20008;-49
2023/10/05 02:02:10;;;;;;;20.20;3.42;;;15.30;99.90;;;;;;6248970;23;20011;-49
2023/10/05 02:04:49;;;;;;;12.52;2.85;;;15.30;99.90;;;;;;6248889;23;20004;-51
2023/10/05 02:07:15;;;;;;;18.15;2.95;;;15.20;99.90;;;;;;6247342;23;20008;-49
2023/10/05 02:09:41;;;;;;;19.38;3.28;;;15.20;99.90;;;;;;6249074;23;20035;-49
2023/10/05 02:12:07;;;;;;;18.27;3.40;;;15.20;99.90;;;;;;6248769;23;20399;-48
2023/10/05 02:14:40;;;;;;;14.63;3.20;;;15.20;99.90;;;;;;6247470;23;20019;-49
2023/10/05 02:17:07;;;;;;;23.17;3.83;;;15.20;99.90;;;;;;6247811;23;20008;-49
2023/10/05 02:19:36;;;;;;;20.13;3.65;;;15.10;99.90;;;;;;6248975;23;20034;-49
2023/10/05 02:22:03;;;;;;;17.07;3.03;;;15.10;99.90;;;;;;6248556;23;20000;-48
2023/10/05 02:24:30;;;;;;;18.48;2.97;;;15.10;99.90;;;;;;6248675;23;20032;-50
2023/10/05 02:29:31;;;;;;;21.23;3.15;;;15.00;99.90;;;;;;6249005;23;20012;-48
2023/10/05 02:32:05;;;;;;;18.67;4.65;;;15.00;99.90;;;;;;6247326;23;20016;-48
2023/10/05 02:34:44;;;;;;;17.23;3.33;;;15.00;99.90;;;;;;6248025;23;20015;-48
2023/10/05 02:37:19;;;;;;;25.20;6.13;;;15.00;99.90;;;;;;6248834;23;20016;-48
2023/10/05 02:39:45;;;;;;;19.98;3.50;;;15.00;99.90;;;;;;6247222;22;20104;-52
2023/10/05 02:42:15;;;;;;;16.58;3.83;;;15.00;99.90;;;;;;6247532;23;20032;-48
2023/10/05 02:44:42;;;;;;;20.98;3.90;;;15.00;99.90;;;;;;6248441;23;20460;-48
2023/10/05 02:47:08;;;;;;;17.23;3.30;;;15.00;99.90;;;;;;6248707;22;20478;-49
2023/10/05 02:49:39;;;;;;;21.52;4.10;;;15.00;99.90;;;;;;6248609;23;20085;-48
2023/10/05 02:52:06;;;;;;;16.50;3.28;;;15.00;99.90;;;;;;6248196;23;20398;-50
2023/10/05 02:54:32;;;;;;;25.13;4.40;;;14.90;99.90;;;;;;6248470;22;20468;-49
2023/10/05 02:56:57;;;;;;;17.13;3.13;;;14.90;99.90;;;;;;6248412;23;20012;-48
2023/10/05 02:59:26;;;;;;;22.63;3.65;;;14.90;99.90;;;;;;6248563;23;20442;-52
2023/10/05 03:02:00;;;;;;;24.45;3.85;;;14.90;99.90;;;;;;6247161;23;20047;-49
2023/10/05 03:04:44;;;;;;;25.75;4.78;;;14.90;99.90;;;;;;6248215;23;20008;-50
2023/10/05 03:07:18;;;;;;;16.48;3.38;;;15.00;99.90;;;;;;5072842;28;20372;-46
2023/10/05 03:09:46;;;;;;;19.33;3.95;;;15.00;99.90;;;;;;5071287;28;20075;-47
2023/10/05 03:12:11;;;;;;;17.73;3.53;;;15.00;99.90;;;;;;5072161;28;20339;-49
2023/10/05 03:14:38;;;;;;;22.63;3.42;;;15.00;99.90;;;;;;5070964;28;20108;-50
2023/10/05 03:17:07;;;;;;;21.85;4.45;;;15.00;99.90;;;;;;5072058;28;20021;-50
2023/10/05 03:19:36;;;;;;;25.80;4.18;;;15.00;99.90;;;;;;5072112;28;20442;-51
2023/10/05 03:22:04;;;;;;;22.88;3.95;;;15.00;99.90;;;;;;5070984;28;20104;-46
2023/10/05 03:24:30;;;;;;;17.52;2.80;;;15.00;99.90;;;;;;5072040;28;20071;-46
2023/10/05 03:26:56;;;;;;;14.32;3.40;;;15.00;99.90;;;;;;5071950;28;20128;-51
2023/10/05 03:29:22;;;;;;;19.27;3.30;;;15.00;99.90;;;;;;5071927;28;20057;-46
2023/10/05 03:31:55;;;;;;;15.38;3.35;;;15.00;99.90;;;;;;5071930;28;20036;-47
2023/10/05 03:34:25;;;;;;;19.90;3.30;;;15.00;99.90;;;;;;5071789;28;20036;-49
2023/10/05 03:36:51;;;;;;;24.13;4.38;;;14.90;99.90;;;;;;5071949;28;20033;-48
2023/10/05 03:39:17;;;;;;;25.17;3.90;;;14.90;99.90;;;;;;5071705;28;20057;-47
2023/10/05 03:41:45;;;;;;;26.33;3.22;;;14.90;99.90;;;;;;5071843;28;20157;-52
2023/10/05 03:44:15;;;;;;;25.05;3.58;;;14.90;99.90;;;;;;5071535;28;20066;-51
2023/10/05 03:46:47;;;;;;;;;;;14.90;99.90;;;;;;5070665;28;20028;-53
2023/10/05 03:49:17;;;;;;;17.73;3.55;;;14.80;99.90;;;;;;5071617;28;19912;-52
2023/10/05 03:51:49;;;;;;;13.85;3.20;;;14.80;99.90;;;;;;5071589;28;20048;-52
2023/10/05 03:54:20;;;;;;;16.27;2.67;;;14.70;99.90;;;;;;5071588;28;20032;-50
2023/10/05 03:56:49;;;;;;;20.42;3.13;;;14.70;99.90;;;;;;5071527;28;20046;-53
2023/10/05 03:59:16;;;;;;;10.77;2.40;;;14.50;99.90;;;;;;5071436;28;20029;-52
2023/10/05 04:01:41;;;;;;;11.23;2.20;;;14.50;99.90;;;;;;5071373;28;20032;-50
2023/10/05 04:04:08;;;;;;;11.65;2.40;;;14.40;99.90;;;;;;5071122;28;20049;-49
2023/10/05 04:06:38;;;;;;;16.40;2.45;;;14.40;99.90;;;;;;5070754;28;20040;-49
2023/10/05 04:09:05;;;;;;;15.65;2.60;;;14.40;99.90;;;;;;5071028;28;20021;-51
2023/10/05 04:11:33;;;;;;;9.23;2.47;;;14.40;99.90;;;;;;5070900;28;20025;-49
2023/10/05 04:14:01;;;;;;;10.40;2.33;;;14.40;99.90;;;;;;5071046;28;20056;-49
2023/10/05 04:16:28;;;;;;;11.98;2.80;;;14.40;99.90;;;;;;5068897;28;20453;-55
2023/10/05 04:18:54;;;;;;;11.07;2.20;;;14.40;99.90;;;;;;5057086;28;20060;-51
2023/10/05 04:21:23;;;;;;;13.02;2.40;;;14.40;99.90;;;;;;5058116;28;20040;-50
2023/10/05 04:23:52;;;;;;;8.57;2.33;;;14.40;99.90;;;;;;5058007;28;20115;-47
2023/10/05 04:26:21;;;;;;;12.43;2.17;;;14.40;99.90;;;;;;5057321;28;20025;-48
2023/10/05 04:28:57;;;;;;;14.43;2.60;;;14.40;99.90;;;;;;5057611;28;20029;-48
2023/10/05 04:31:25;;;;;;;9.77;2.47;;;14.30;99.90;;;;;;5056503;28;20522;-46
2023/10/05 04:33:51;;;;;;;9.90;2.10;;;14.30;99.90;;;;;;5057512;28;20033;-47
2023/10/05 04:36:19;;;;;;;9.68;1.98;;;14.30;99.90;;;;;;5056460;28;20025;-48
2023/10/05 04:38:46;;;;;;;11.05;2.10;;;14.30;99.90;;;;;;5057329;28;20481;-48
2023/10/05 04:41:17;;;;;;;8.15;2.30;;;14.20;99.90;;;;;;5057239;28;20504;-50
2023/10/05 04:43:43;;;;;;;11.40;2.65;;;14.20;99.90;;;;;;5057365;28;20053;-49
2023/10/05 04:46:10;;;;;;;10.80;2.45;;;14.20;99.90;;;;;;5057325;28;20036;-47
2023/10/05 04:48:38;;;;;;;14.13;2.40;;;14.20;99.90;;;;;;5056238;28;20357;-48
2023/10/05 04:51:06;;;;;;;9.27;2.75;;;14.30;99.90;;;;;;5056729;28;20383;-48
2023/10/05 04:53:32;;;;;;;8.82;2.35;;;14.30;99.90;;;;;;5057126;28;20450;-50
2023/10/05 04:56:12;;;;;;;12.98;2.78;;;14.20;99.90;;;;;;5055995;28;20040;-48
2023/10/05 04:58:53;;;;;;;14.18;2.88;;;14.30;99.90;;;;;;5056140;28;20446;-49
2023/10/05 05:01:29;;;;;;;17.20;2.42;;;14.30;99.90;;;;;;5056254;28;20366;-49
2023/10/05 05:04:13;;;;;;;14.07;2.58;;;14.30;99.90;;;;;;5040717;28;20346;-48
2023/10/05 05:06:41;;;;;;;15.88;3.00;;;14.40;99.90;;;;;;5056428;28;20053;-48
2023/10/05 05:09:12;;;;;;;20.02;3.53;;;14.50;99.90;;;;;;5056656;28;20027;-47
2023/10/05 05:11:39;;;;;;;16.42;3.10;;;14.50;99.90;;;;;;5056767;28;20040;-47
2023/10/05 05:14:07;;;;;;;22.63;3.38;;;14.50;99.90;;;;;;5055700;28;20033;-47
2023/10/05 05:16:34;;;;;;;16.70;3.00;;;14.50;99.90;;;;;;5056722;28;20029;-47
2023/10/05 05:19:00;;;;;;;16.50;2.90;;;14.60;99.90;;;;;;5056633;28;20106;-47
2023/10/05 05:21:25;;;;;;;15.88;3.05;;;14.60;99.90;;;;;;5056142;28;20461;-51
2023/10/05 05:23:51;;;;;;;14.27;3.03;;;14.60;99.90;;;;;;5056028;28;20385;-48
2023/10/05 05:26:17;;;;;;;20.50;3.30;;;14.60;99.90;;;;;;5056592;28;20358;-48
2023/10/05 05:28:43;;;;;;;9.15;2.80;;;14.60;99.90;;;;;;5055409;28;20033;-48
2023/10/05 05:31:16;;;;;;;21.08;2.92;;;14.70;99.90;;;;;;5056236;28;20029;-48
2023/10/05 05:33:43;;;;;;;20.15;3.50;;;14.60;99.90;;;;;;5056423;28;20029;-48
2023/10/05 05:36:11;;;;;;;18.05;3.22;;;14.60;99.90;;;;;;5054981;28;20041;-47
2023/10/05 05:38:38;;;;;;;17.40;2.88;;;14.60;99.90;;;;;;5055154;28;20029;-50
2023/10/05 05:41:16;;;;;;;22.83;3.35;;;14.60;99.90;;;;;;5056392;28;20048;-50
2023/10/05 05:43:41;;;;;;;11.15;3.35;;;14.60;99.90;;;;;;5054958;28;20041;-49
2023/10/05 05:46:14;;;;;;;23.42;3.03;;;14.60;99.90;;;;;;5056187;28;20036;-49
2023/10/05 05:48:42;;;;;;;15.15;2.55;;;14.60;99.90;;;;;;5055811;28;20025;-50
2023/10/05 05:51:15;;;;;;;11.35;2.78;;;14.50;99.90;;;;;;5056226;28;20036;-49
2023/10/05 05:53:44;;;;;;;16.40;3.00;;;14.50;99.90;;;;;;5055616;28;20033;-50
2023/10/05 05:56:16;;;;;;;18.17;3.70;;;14.50;99.90;;;;;;5054519;28;20032;-50
2023/10/05 05:58:46;;;;;;;14.73;3.08;;;14.50;99.90;;;;;;5055675;28;20041;-52
2023/10/05 06:01:16;;;;;;;18.75;2.90;;;14.40;99.90;;;;;;5055716;28;20044;-53
2023/10/05 06:03:48;;;;;;;17.23;3.20;;;14.40;99.90;;;;;;5055869;28;20364;-49
2023/10/05 06:06:16;;;;;;;15.65;2.40;;;14.40;99.90;;;;;;5055055;28;20060;-50
2023/10/05 06:08:42;;;;;;;19.67;3.00;;;14.40;99.90;;;;;;5055628;28;20451;-52
2023/10/05 06:11:08;;;;;;;10.10;2.33;;;14.40;99.90;;;;;;5055676;28;20031;-50
2023/10/05 06:13:36;;;;;;;14.82;3.15;;;14.40;99.90;;;;;;5055686;28;20029;-49
2023/10/05 06:16:13;;;;;;;18.13;3.25;;;14.40;99.90;;;;;;5055084;28;20039;-51
2023/10/05 06:18:39;;;;;;;16.13;3.72;;;14.40;99.90;;;;;;5054535;28;20369;-46
2023/10/05 06:21:08;;;;;;;14.07;2.47;;;14.40;99.90;;;;;;5055287;28;20041;-46
2023/10/05 06:23:34;;;;;;;15.93;3.05;;;14.30;99.90;;;;;;5055405;28;20461;-49
2023/10/05 06:26:03;;;;;;;10.18;2.35;;;14.30;99.90;;;;;;5053980;28;20037;-52
2023/10/05 06:28:28;;;;;;;16.45;2.40;;;14.30;99.90;;;;;;5055411;28;20394;-51
2023/10/05 06:30:55;;;;;;;11.98;2.03;;;14.30;99.90;;;;;;5054049;28;20094;-51
2023/10/05 06:33:21;;;;;;;14.57;2.55;;;14.20;99.90;;;;;;5054190;28;20139;-50
2023/10/05 06:35:46;;;;;;;11.75;1.98;;;14.20;99.90;;;;;;5055178;28;20061;-50
2023/10/05 06:38:12;;;;;;;9.05;1.95;;;14.10;99.90;;;;;;5054698;28;20052;-51
2023/10/05 06:40:38;;;;;;;11.85;2.42;;;14.10;99.90;;;;;;5054649;28;20048;-49
2023/10/05 06:43:05;;;;;;;7.20;1.80;;;14.10;99.90;;;;;;5054401;28;20434;-51
2023/10/05 06:45:31;;;;;;;9.60;2.00;;;14.10;99.90;;;;;;5054980;28;20029;-50
2023/10/05 06:47:57;;;;;;;7.03;1.88;;;14.10;99.90;;;;;;5055008;28;20408;-51
2023/10/05 06:50:23;;;;;;;13.77;2.45;;;14.10;99.90;;;;;;5054919;28;20100;-49
2023/10/05 06:52:49;;;;;;;9.18;2.17;;;14.10;99.90;;;;;;5053656;28;20515;-52
2023/10/05 06:55:17;;;;;;;22.40;2.63;;;14.10;99.90;;;;;;5054865;28;20060;-50
2023/10/05 06:57:43;;;;;;;9.70;1.90;;;14.10;99.90;;;;;;5054854;28;20025;-51
2023/10/05 07:00:16;;;;;;;9.60;2.15;;;14.20;99.90;;;;;;5053679;28;20029;-51
2023/10/05 07:02:45;;;;;;;12.32;2.05;;;14.20;99.90;;;;;;5053881;28;20029;-52
2023/10/05 07:05:11;;;;;;;14.25;2.97;;;14.20;99.90;;;;;;5053276;28;20045;-51
2023/10/05 07:07:37;;;;;;;13.40;2.20;;;14.20;99.90;;;;;;5054574;28;20037;-51
2023/10/05 07:10:06;;;;;;;9.00;2.42;;;14.20;99.90;;;;;;5054844;28;20033;-51
2023/10/05 07:12:35;;;;;;;15.30;2.30;;;14.20;99.90;;;;;;5054671;28;20123;-51
2023/10/05 07:15:05;;;;;;;11.35;2.78;;;14.20;99.90;;;;;;5053845;28;20025;-51
2023/10/05 07:17:31;;;;;;;12.93;2.58;;;14.20;99.90;;;;;;5054437;28;20097;-51
2023/10/05 07:19:58;;;;;;;18.35;3.30;;;14.20;99.90;;;;;;5053300;28;20040;-51
2023/10/05 07:22:24;;;;;;;16.17;2.95;;;14.20;99.90;;;;;;5053111;28;20025;-57
2023/10/05 07:24:49;;;;;;;13.50;2.45;;;14.20;99.90;;;;;;5053843;28;20362;-49
2023/10/05 07:27:16;;;;;;;13.77;2.80;;;14.20;99.90;;;;;;5053785;28;20041;-52
2023/10/05 07:29:44;;;;;;;15.73;3.00;;;14.20;99.90;;;;;;5054435;28;20025;-51
2023/10/05 07:32:11;;;;;;;18.83;3.80;;;14.20;99.90;;;;;;5053293;28;20365;-51
2023/10/05 07:34:40;;;;;;;15.38;3.20;;;14.20;99.90;;;;;;5054056;28;20104;-51
2023/10/05 07:37:08;;;;;;;16.20;2.60;;;14.20;99.90;;;;;;5054179;28;20067;-51
2023/10/05 07:39:34;;;;;;;13.98;2.95;;;14.20;99.90;;;;;;5054354;28;20111;-51
2023/10/05 07:42:00;;;;;;;13.48;2.65;;;14.20;99.90;;;;;;5054240;28;20454;-51
2023/10/05 07:44:27;;;;;;;17.75;3.45;;;14.30;99.90;;;;;;5053878;28;20032;-52
2023/10/05 07:46:53;;;;;;;11.25;2.53;;;14.20;99.90;;;;;;5054200;28;20128;-51
2023/10/05 07:49:19;;;;;;;10.95;2.90;;;14.20;99.90;;;;;;5054044;28;20028;-48
2023/10/05 07:51:45;;;;;;;16.55;3.28;;;14.20;99.90;;;;;;5052878;28;20040;-50
2023/10/05 07:54:10;;;;;;;17.02;2.78;;;14.30;99.90;;;;;;5057512;28;20465;-50
2023/10/05 07:56:36;;;;;;;16.88;2.80;;;14.30;99.90;;;;;;5057365;28;20037;-50
2023/10/05 07:59:02;;;;;;;16.63;3.03;;;14.20;99.90;;;;;;5057613;28;20044;-51
2023/10/05 08:01:28;;;;;;;14.10;2.40;;;14.30;99.90;;;;;;5057936;28;20112;-48
2023/10/05 08:03:54;;;;;;;12.90;2.63;;;14.30;99.90;;;;;;5057688;28;20044;-47
2023/10/05 08:06:20;;;;;;;16.10;2.83;;;14.20;99.90;;;;;;5056114;28;20499;-49
2023/10/05 08:08:47;;;;;;;17.95;3.50;;;14.30;99.90;;;;;;5057657;28;20055;-51
2023/10/05 08:11:13;;;;;;;17.50;2.70;;;14.30;99.90;;;;;;5057484;28;20029;-49
2023/10/05 08:13:42;;;;;;;13.27;3.00;;;14.30;99.90;;;;;;5057687;28;20108;-49
2023/10/05 08:16:08;;;;;;;10.77;2.57;;;14.40;99.90;;;;;;5056977;28;20064;-51
2023/10/05 08:18:34;;;;;;;13.32;2.13;;;14.40;99.90;;;;;;5056997;28;20064;-50
2023/10/05 08:21:00;;;;;;;11.75;2.67;;;14.50;99.90;;;;;;5056114;28;20032;-51
2023/10/05 08:23:28;;;;;;;9.70;2.30;;;14.60;99.90;;;;;;5057106;28;20048;-50
2023/10/05 08:25:57;;;;;;;8.32;2.20;;;14.70;99.90;;;;;;5056979;28;20029;-51
2023/10/05 08:28:24;;;;;;;9.52;1.83;;;14.70;99.90;;;;;;5057092;28;20033;-51
2023/10/05 08:31:05;;;;;;;12.18;2.85;;;14.70;99.90;;;;;;5057257;28;20025;-51
2023/10/05 08:33:34;;;;;;;8.82;2.03;;;14.80;99.90;;;;;;5056365;28;20029;-51
2023/10/05 08:36:06;;;;;;;10.82;2.72;;;14.80;99.90;;;;;;5057241;28;20509;-51
2023/10/05 08:38:33;;;;;;;7.13;2.25;;;15.00;99.90;;;;;;5057048;28;20017;-51
2023/10/05 08:41:01;;;;;;;9.30;2.60;;;15.00;99.90;;;;;;5055859;28;20037;-51
2023/10/05 08:43:26;;;;;;;16.08;3.95;;;15.00;99.90;;;;;;5055932;28;20534;-50
2023/10/05 08:45:52;;;;;;;11.85;2.80;;;14.80;99.90;;;;;;5056804;28;20041;-52
2023/10/05 08:48:28;;;;;;;10.20;2.50;;;14.80;99.90;;;;;;5055894;28;20052;-51
2023/10/05 08:50:55;;;;;;;9.25;2.83;;;14.80;99.90;;;;;;5055794;28;20403;-52
2023/10/05 08:53:21;;;;;;;7.70;2.08;;;14.90;99.90;;;;;;5056591;28;20104;-51
2023/10/05 08:55:49;;;;;;;12.05;2.47;;;14.80;99.90;;;;;;5056661;28;20028;-49
2023/10/05 08:58:18;;;;;;;12.60;2.53;;;14.80;99.90;;;;;;5055146;28;20032;-51
2023/10/05 09:00:48;;;;;;;12.85;2.55;;;14.80;99.90;;;;;;5056259;28;20045;-50
2023/10/05 09:06:20;;;;;;;14.95;3.67;;;14.80;99.90;;;;;;5054139;28;20423;-52
2023/10/05 09:11:31;;;;;;;13.32;2.65;;;14.90;99.90;;;;;;5056552;28;20051;-51
2023/10/05 09:14:17;;;;;;;12.02;2.70;;;14.90;99.90;;;;;;5055405;28;20029;-51
2023/10/05 09:16:45;;;;;;;12.73;3.05;;;14.90;99.90;;;;;;5056614;28;20429;-51
2023/10/05 09:19:17;;;;;;;9.63;2.58;;;15.00;99.90;;;;;;5056268;28;20120;-51
2023/10/05 09:21:50;;;;;;;11.02;2.60;;;15.00;99.90;;;;;;5055159;28;20035;-51
2023/10/05 09:24:20;;;;;;;12.45;2.83;;;15.00;99.90;;;;;;5056065;28;20047;-51
2023/10/05 09:26:55;;;;;;;13.23;3.33;;;15.00;99.90;;;;;;5056126;28;20442;-51
2023/10/05 09:29:28;;;;;;;13.05;3.42;;;15.00;99.90;;;;;;5056049;28;20033;-51
2023/10/05 09:31:54;;;;;;;13.27;3.08;;;14.90;99.90;;;;;;5055944;28;20025;-51
2023/10/05 09:34:35;;;;;;;13.82;3.40;;;14.80;99.90;;;;;;5056033;28;20426;-51
2023/10/05 09:37:11;;;;;;;15.50;3.53;;;14.80;99.90;;;;;;5055840;28;20071;-51
2023/10/05 09:39:44;;;;;;;12.52;2.80;;;14.70;99.90;;;;;;5055825;28;20025;-51
2023/10/05 09:42:26;;;;;;;18.70;3.20;;;14.70;99.90;;;;;;5055792;28;20095;-51
2023/10/05 09:45:06;;;;;;;8.80;2.20;;;14.60;99.90;;;;;;5038498;28;20033;-51
2023/10/05 09:47:32;;;;;;;12.40;3.25;;;14.60;99.90;;;;;;5055711;28;20063;-50
2023/10/05 09:50:03;;;;;;;9.80;2.70;;;14.60;99.90;;;;;;5054521;28;20025;-49
2023/10/05 09:52:35;;;;;;;15.30;3.50;;;14.60;99.90;;;;;;5054388;28;20081;-51
2023/10/05 09:55:05;;;;;;;13.50;3.08;;;14.60;99.90;;;;;;5055641;28;20033;-48
2023/10/05 09:57:41;;;;;;;10.77;2.60;;;14.60;99.90;;;;;;5054334;28;20410;-52
2023/10/05 10:03:02;;;;;;;6.78;2.17;;;14.70;99.90;;;;;;5055487;28;20041;-50
2023/10/05 10:05:36;;;;;;;11.32;2.65;;;14.60;99.90;;;;;;5054708;28;20049;-51
2023/10/05 10:08:20;;;;;;;11.65;2.97;;;14.60;99.90;;;;;;5054155;28;20307;-49
2023/10/05 10:11:09;;;;;;;9.27;2.53;;;14.60;99.90;;;;;;5054992;28;20125;-50
2023/10/05 10:13:38;;;;;;;15.23;3.30;;;14.70;99.90;;;;;;5055263;28;20029;-50
2023/10/05 10:16:22;;;;;;;11.90;2.67;;;14.70;99.90;;;;;;5053530;28;20434;-49
2023/10/05 10:19:18;;;;;;;11.13;3.67;;;14.70;99.90;;;;;;5053943;28;20025;-52
2023/10/05 10:21:53;;;;;;;6.63;2.60;;;14.80;99.90;;;;;;5054360;28;20405;-50
2023/10/05 10:24:18;;;;;;;6.25;2.83;;;14.90;99.90;;;;;;5054263;28;20037;-51
2023/10/05 10:27:07;;;;;;;15.68;3.10;;;14.90;99.90;;;;;;5054817;28;20453;-51
2023/10/05 10:29:44;;;;;;;13.75;3.17;;;14.90;99.90;;;;;;5054923;28;20408;-51
2023/10/05 10:32:20;;;;;;;9.32;2.63;;;15.00;99.90;;;;;;5054080;28;20029;-51
2023/10/05 10:34:49;;;;;;;10.18;2.47;;;14.90;99.90;;;;;;5055066;28;20025;-52
2023/10/05 10:37:44;;;;;;;12.57;2.58;;;14.90;99.90;;;;;;5053457;28;20091;-52
2023/10/05 10:42:55;;;;;;;11.85;2.38;;;14.90;99.90;;;;;;5053646;28;20041;-51
2023/10/05 10:45:32;;;;;;;11.32;2.47;;;15.00;99.90;;;;;;5053468;28;20044;-51
2023/10/05 10:47:58;;;;;;;7.35;2.33;;;15.10;99.90;;;;;;5053421;28;20102;-52
2023/10/05 10:50:29;;;;;;;10.05;2.85;;;15.10;99.90;;;;;;5054187;28;20024;-51
2023/10/05 10:52:55;;;;;;;10.02;2.30;;;15.20;99.90;;;;;;5054594;28;20116;-52
2023/10/05 10:55:21;;;;;;;11.05;3.13;;;15.20;99.90;;;;;;5054307;28;20032;-51
2023/10/05 10:57:47;;;;;;;7.35;2.60;;;15.20;99.90;;;;;;5053250;28;20051;-48
2023/10/05 11:02:59;;;;;;;21.27;2.70;;;15.50;99.90;;;;;;5054074;28;20044;-49
2023/10/05 11:05:43;;;;;;;14.23;2.97;;;15.60;99.90;;;;;;5054073;28;20068;-51
2023/10/05 11:08:12;;;;;;;7.88;2.30;;;15.80;99.90;;;;;;5054105;28;20036;-51
2023/10/05 11:10:41;;;;;;;15.85;2.63;;;15.90;99.90;;;;;;5052906;28;20066;-50
2023/10/05 11:13:19;;;;;;;15.37;4.43;;;16.00;99.90;;;;;;5054336;28;20388;-51
2023/10/05 11:15:58;;;;;;;5.78;1.95;;;16.20;99.90;;;;;;5054162;28;20107;-50
2023/10/05 11:18:30;;;;;;;11.90;2.60;;;16.50;99.90;;;;;;5052920;28;20056;-51
2023/10/05 11:21:16;;;;;;;13.88;4.15;;;16.60;99.90;;;;;;5054268;28;20057;-48
2023/10/05 11:23:55;;;;;;;7.70;2.10;;;16.70;99.90;;;;;;5053830;28;20381;-51
2023/10/05 11:26:56;;;;;;;;;;;16.60;99.90;;;;;;5053299;28;20366;-49
2023/10/05 11:29:28;;;;;;;10.10;2.45;;;16.60;99.90;;;;;;5058423;28;19920;-48
2023/10/05 11:32:10;;;;;;;9.60;2.33;;;16.50;99.90;;;;;;5058165;28;20017;-51
2023/10/05 11:34:39;;;;;;;8.77;2.45;;;16.50;99.90;;;;;;5057151;28;20481;-48
2023/10/05 11:37:15;;;;;;;8.38;1.98;;;16.70;99.90;;;;;;5058129;28;20338;-48
2023/10/05 11:39:41;;;;;;;15.77;2.55;;;16.80;99.90;;;;;;5058340;28;20036;-47
2023/10/05 11:42:10;;;;;;;10.45;2.95;;;17.00;99.90;;;;;;5056939;28;20028;-47
2023/10/05 11:44:38;;;;;;;13.48;3.47;;;17.10;99.90;;;;;;5056462;28;20047;-47
2023/10/05 11:47:07;;;;;;;11.40;2.67;;;17.20;99.90;;;;;;5057463;28;20029;-51
2023/10/05 11:49:33;;;;;;;11.10;3.40;;;17.10;99.90;;;;;;5056725;28;20048;-51
2023/10/05 11:52:03;;;;;;;11.63;4.57;;;17.20;99.90;;;;;;5056669;28;20785;-48
2023/10/05 11:54:30;;;;;;;11.80;2.97;;;16.90;99.90;;;;;;5057184;28;20021;-50
2023/10/05 11:56:59;;;;;;;6.57;2.08;;;16.60;99.90;;;;;;5057595;28;20020;-49
2023/10/05 11:59:29;;;;;;;13.85;2.97;;;16.70;99.90;;;;;;5056631;28;20422;-51
2023/10/05 12:01:55;;;;;;;13.15;3.15;;;16.70;99.90;;;;;;5057510;28;20040;-51
2023/10/05 12:04:20;;;;;;;13.20;2.92;;;16.70;99.90;;;;;;5056789;28;20327;-50
2023/10/05 12:06:47;;;;;;;12.18;2.80;;;16.50;99.90;;;;;;5057091;28;20060;-51
2023/10/05 12:09:27;;;;;;;8.20;2.72;;;16.20;99.90;;;;;;5057434;28;20028;-50
2023/10/05 12:11:57;;;;;;;;;;;16.00;99.90;;;;;;5057935;28;20025;-49
2023/10/05 12:14:24;;;;;;;9.35;2.70;;;15.80;99.90;;;;;;5057441;28;20344;-51
2023/10/05 12:16:52;;;;;;;10.30;3.00;;;15.80;99.90;;;;;;5055938;28;20044;-49
2023/10/05 12:19:27;;;;;;;15.00;3.58;;;15.80;99.90;;;;;;5057194;28;20061;-49
2023/10/05 12:21:53;;;;;;;21.35;3.78;;;15.80;99.90;;;;;;5057193;28;20041;-51
2023/10/05 12:24:19;;;;;;;12.25;3.00;;;15.80;99.90;;;;;;5057085;28;20032;-50
2023/10/05 12:26:45;;;;;;;11.82;3.30;;;15.80;99.90;;;;;;5057022;28;20088;-51
2023/10/05 12:29:14;;;;;;;16.63;3.08;;;15.80;99.90;;;;;;5056787;28;20049;-48
2023/10/05 12:31:44;;;;;;;12.63;2.83;;;15.70;99.90;;;;;;5057288;28;20056;-49
2023/10/05 12:34:14;;;;;;;8.80;2.95;;;15.70;99.90;;;;;;5057292;28;20047;-51
2023/10/05 12:36:41;;;;;;;16.50;3.63;;;15.70;99.90;;;;;;5056138;28;20037;-50
2023/10/05 12:39:11;;;;;;;14.05;3.40;;;15.70;99.90;;;;;;5056491;28;20411;-51
2023/10/05 12:41:40;;;;;;;9.48;2.35;;;15.70;99.90;;;;;;5056824;28;20033;-50
2023/10/05 12:44:09;;;;;;;7.80;2.30;;;15.60;99.90;;;;;;5056731;28;20098;-51
2023/10/05 12:46:39;;;;;;;12.50;3.33;;;15.50;99.90;;;;;;5056217;28;20063;-50
2023/10/05 12:49:08;;;;;;;12.15;3.17;;;15.40;99.90;;;;;;5055662;28;20025;-52
2023/10/05 12:51:35;;;;;;;10.25;2.85;;;15.30;99.90;;;;;;5056963;28;20032;-51
2023/10/05 12:54:03;;;;;;;13.25;2.78;;;15.30;99.90;;;;;;5056933;28;20037;-51
2023/10/05 12:56:29;;;;;;;7.13;2.78;;;15.30;99.90;;;;;;5056963;28;20049;-52
2023/10/05 12:58:55;;;;;;;18.17;3.70;;;15.20;99.90;;;;;;5056212;28;20369;-51
2023/10/05 13:01:21;;;;;;;17.55;4.20;;;15.20;99.90;;;;;;5056458;28;20093;-51
2023/10/05 13:03:46;;;;;;;12.65;3.35;;;15.10;99.90;;;;;;5056969;28;20397;-51
2023/10/05 13:06:14;;;;;;;10.75;2.97;;;15.10;99.90;;;;;;5056053;28;20079;-51
2023/10/05 13:08:43;;;;;;;17.35;4.40;;;15.00;99.90;;;;;;5055040;28;20029;-51
2023/10/05 13:11:11;;;;;;;11.30;2.80;;;15.00;99.90;;;;;;5055869;28;20101;-52
2023/10/05 13:13:39;;;;;;;17.63;3.47;;;15.00;99.90;;;;;;5055422;28;20335;-50
2023/10/05 13:16:13;;;;;;;17.70;3.88;;;15.10;99.90;;;;;;5056595;28;20059;-51
2023/10/05 13:18:42;;;;;;;27.00;5.22;;;15.30;99.90;;;;;;5056466;28;20334;-50